Orbital elements of EXPRESS-AM44
| Launched | 10 February 2009 |
| Flight ended | – |
| Launch site | Tyuratam Missile and Space Center, Kazakhstan (Also known as Baikonur Cosmodrome) |
| Owner | Commonwealth of Independent States (former USSR) |
| NORAD ID | 33595 |
| Date fetched |
Epoch osculation |
Inc. [°] |
Ecc. | RA asc node [hr] |
Arg Peri. [°] |
Mean anom [°] |
Mean motion [rev/day] |
Abs. mag |
| Date fetched |
Epoch osculation |
Inc. [°] |
Ecc. | RA asc node [hr] |
Arg Peri. [°] |
Mean anom [°] |
Mean motion [rev/day] |
Abs. mag |
| 2026 May 01 17:56 | 2026 May 01 12:30:52 | 3.3457 | 0.00045 | 5.2630 | 322.1940 | 355.0424 | 1.00272 | – |
| 2026 Apr 30 17:56 | 2026 Apr 30 03:04:38 | 3.3422 | 0.00044 | 5.2640 | 319.2086 | 355.0424 | 1.00272 | – |
| 2026 Apr 29 17:57 | 2026 Apr 29 12:59:26 | 3.3408 | 0.00043 | 5.2644 | 318.1261 | 355.0424 | 1.00272 | – |
| 2026 Apr 28 17:56 | 2026 Apr 28 10:00:24 | 3.3379 | 0.00042 | 5.2652 | 316.6374 | 355.0424 | 1.00272 | – |
| 2026 Apr 27 17:58 | 2026 Apr 27 01:29:41 | 3.3344 | 0.00041 | 5.2662 | 314.7955 | 355.0424 | 1.00272 | – |
| 2026 Apr 26 17:58 | 2026 Apr 26 10:05:29 | 3.3326 | 0.00041 | 5.2667 | 314.0913 | 355.0424 | 1.00272 | – |
| 2026 Apr 25 17:58 | 2026 Apr 25 08:25:29 | 3.3296 | 0.00041 | 5.2674 | 312.6784 | 355.0424 | 1.00272 | – |
| 2026 Apr 24 17:59 | 2026 Apr 24 13:12:59 | 3.3273 | 0.00041 | 5.2679 | 311.2867 | 355.0424 | 1.00272 | – |
| 2026 Apr 23 17:57 | 2026 Apr 23 06:47:50 | 3.3232 | 0.00041 | 5.2688 | 309.9005 | 355.0424 | 1.00272 | – |
| 2026 Apr 22 17:57 | 2026 Apr 22 07:09:00 | 3.3202 | 0.00041 | 5.2696 | 309.0161 | 355.0424 | 1.00272 | – |
| 2026 Apr 21 17:57 | 2026 Apr 21 08:35:43 | 3.3173 | 0.00041 | 5.2704 | 308.3906 | 355.0424 | 1.00272 | – |
| 2026 Apr 20 17:57 | 2026 Apr 20 08:38:15 | 3.3143 | 0.00041 | 5.2715 | 307.8258 | 355.0424 | 1.00272 | – |
| 2026 Apr 19 17:58 | 2026 Apr 19 08:40:49 | 3.3115 | 0.00041 | 5.2725 | 307.8328 | 355.0424 | 1.00272 | – |
| 2026 Apr 18 17:56 | 2026 Apr 18 05:18:03 | 3.3084 | 0.00041 | 5.2737 | 308.1016 | 355.0424 | 1.00272 | – |
| 2026 Apr 16 17:57 | 2026 Apr 15 22:32:28 | 3.3024 | 0.00042 | 5.2756 | 308.0387 | 355.0424 | 1.00272 | – |
| 2026 Apr 14 17:57 | 2026 Apr 14 07:10:56 | 3.2983 | 0.00043 | 5.2768 | 307.4285 | 355.0424 | 1.00272 | – |
| 2026 Apr 13 17:57 | 2026 Apr 13 02:05:27 | 3.2952 | 0.00044 | 5.2778 | 306.2625 | 355.0424 | 1.00272 | – |
| 2026 Apr 12 17:57 | 2026 Apr 12 08:58:43 | 3.2935 | 0.00044 | 5.2784 | 305.6626 | 355.0424 | 1.00272 | – |
| 2026 Apr 11 17:57 | 2026 Apr 10 19:19:57 | 3.2897 | 0.00044 | 5.2798 | 303.5919 | 355.0424 | 1.00272 | – |
| 2026 Apr 10 17:58 | 2026 Apr 10 05:38:30 | 3.2883 | 0.00044 | 5.2803 | 303.1516 | 355.0424 | 1.00272 | – |
| 2026 Apr 09 18:01 | 2026 Apr 09 05:41:02 | 3.2860 | 0.00044 | 5.2812 | 301.9966 | 355.0424 | 1.00272 | – |
| 2026 Apr 08 17:57 | 2026 Apr 08 05:43:25 | 3.2837 | 0.00044 | 5.2821 | 300.7863 | 355.0424 | 1.00272 | – |
| 2026 Apr 07 17:57 | 2026 Apr 07 05:45:52 | 3.2813 | 0.00043 | 5.2831 | 299.5117 | 355.0424 | 1.00272 | – |
| 2026 Apr 06 17:57 | 2026 Apr 06 04:05:41 | 3.2788 | 0.00044 | 5.2840 | 298.3955 | 355.0424 | 1.00272 | – |
| 2026 Apr 05 17:56 | 2026 Apr 05 05:50:47 | 3.2767 | 0.00043 | 5.2848 | 296.6585 | 355.0424 | 1.00272 | – |
| 2026 Apr 04 17:57 | 2026 Apr 04 04:10:36 | 3.2741 | 0.00043 | 5.2857 | 294.6264 | 355.0424 | 1.00272 | – |